Time;durP1;ratioP1;P1;durP2;ratioP2;P2;SDS_P1;SDS_P2;PMS_P1;PMS_P2;Temp;Humidity;BMP_temperature;BMP_pressure;BME280_temperature;BME280_humidity;BME280_pressure;Samples;Min_cycle;Max_cycle;Signal;HPM_P1;HPM_P2
2023/08/12 05:52:43;;;;;;;5.57;2.70;;;17.60;99.90;;;;;;6252911;22;1945181;-80
2023/08/12 05:58:44;;;;;;;4.30;2.55;;;17.90;99.90;;;;;;6219460;23;20039;-82
2023/08/12 06:01:11;;;;;;;4.28;2.55;;;18.00;99.60;;;;;;6205903;22;20047;-81
2023/08/12 06:19:03;;;;;;;7.53;2.78;;;18.90;98.50;;;;;;6252935;22;20054;31
2023/08/12 08:38:36;;;;;;;4.40;1.65;;;23.80;81.60;;;;;;6232769;22;20035;-85
2023/08/12 08:47:46;;;;;;;4.50;1.55;;;23.90;82.00;;;;;;6232226;22;20046;-79
2023/08/12 08:50:20;;;;;;;5.05;1.73;;;24.00;83.70;;;;;;6209382;23;20027;-84
2023/08/12 08:52:55;;;;;;;2.75;1.60;;;24.00;80.50;;;;;;6205644;23;20051;-82
2023/08/12 08:55:23;;;;;;;3.40;1.52;;;23.80;77.90;;;;;;6185567;23;20028;-82
2023/08/12 08:57:50;;;;;;;1.92;1.48;;;23.90;78.60;;;;;;6206410;23;20028;-83
2023/08/12 09:00:18;;;;;;;2.25;1.23;;;24.10;80.50;;;;;;6209324;23;20046;-84
2023/08/12 09:02:54;;;;;;;3.25;1.27;;;24.00;76.30;;;;;;6207481;23;20031;-83
2023/08/12 09:05:23;;;;;;;2.95;1.50;;;23.90;76.40;;;;;;6209036;23;20031;-84
2023/08/12 09:07:51;;;;;;;2.42;1.40;;;23.90;76.90;;;;;;6206127;23;20031;-84
2023/08/12 09:10:21;;;;;;;2.90;1.35;;;23.90;76.30;;;;;;6204924;23;20276;-82
2023/08/12 09:12:52;;;;;;;5.90;1.40;;;24.00;74.90;;;;;;6206630;23;20030;-85
2023/08/12 09:15:21;;;;;;;2.25;1.25;;;23.90;75.00;;;;;;6209133;23;20034;-86
2023/08/12 09:17:48;;;;;;;2.35;1.58;;;23.90;76.20;;;;;;6184566;23;20020;-82
2023/08/12 09:20:16;;;;;;;3.88;1.70;;;23.90;79.60;;;;;;6211580;23;20078;-84
2023/08/12 09:22:43;;;;;;;2.63;1.48;;;24.10;78.80;;;;;;6208804;23;20382;-85
2023/08/12 09:25:11;;;;;;;3.92;2.20;;;24.00;76.00;;;;;;6209517;23;20012;-81
2023/08/12 09:27:38;;;;;;;2.17;1.48;;;24.00;77.00;;;;;;6182620;23;20047;-84
2023/08/12 09:30:07;;;;;;;1.80;1.35;;;23.90;75.60;;;;;;6180761;23;20028;-83
2023/08/12 09:32:34;;;;;;;2.67;1.33;;;24.00;75.20;;;;;;6181506;23;20028;-84
2023/08/12 09:35:05;;;;;;;1.60;1.27;;;24.10;76.20;;;;;;6205714;23;20504;-83
2023/08/12 09:37:33;;;;;;;3.13;2.33;;;24.10;75.80;;;;;;6208830;23;20028;-85
2023/08/12 09:40:01;;;;;;;4.32;1.60;;;24.00;75.10;;;;;;6184760;23;20028;-84
2023/08/12 09:42:28;;;;;;;2.53;1.50;;;24.10;75.30;;;;;;6180909;23;20463;-83
2023/08/12 09:44:56;;;;;;;2.25;1.40;;;24.20;74.90;;;;;;6206375;23;20459;-84
2023/08/12 09:47:26;;;;;;;3.25;1.55;;;24.20;72.70;;;;;;6181807;23;20407;-83
2023/08/12 09:49:55;;;;;;;1.83;1.17;;;24.10;73.00;;;;;;6206089;23;20031;-83
2023/08/12 09:52:22;;;;;;;1.83;1.10;;;24.20;73.00;;;;;;6212926;23;20028;-86
2023/08/12 09:54:56;;;;;;;2.45;1.42;;;24.20;73.10;;;;;;6215875;23;20081;-83
2023/08/12 09:57:28;;;;;;;2.58;1.50;;;24.20;74.50;;;;;;6211553;23;20024;-84
2023/08/12 09:59:57;;;;;;;;;;;24.20;73.10;;;;;;6216667;23;20028;-84
2023/08/12 10:02:25;;;;;;;2.95;1.73;;;24.20;72.50;;;;;;6191614;23;19920;-85
2023/08/12 10:04:56;;;;;;;2.72;1.30;;;24.30;74.80;;;;;;6216316;23;20110;-83
2023/08/12 10:07:24;;;;;;;3.00;1.55;;;24.40;75.00;;;;;;6216824;23;20027;-84
2023/08/12 10:09:53;;;;;;;3.35;1.98;;;24.40;74.80;;;;;;6216468;23;20077;-86
2023/08/12 10:12:21;;;;;;;2.20;1.50;;;24.40;74.30;;;;;;6191988;23;20020;-85
2023/08/12 10:14:48;;;;;;;2.45;1.23;;;24.50;73.90;;;;;;6186259;23;20023;-83
2023/08/12 10:17:16;;;;;;;1.88;1.20;;;24.60;73.20;;;;;;6215645;23;20028;-84
2023/08/12 10:19:57;;;;;;;2.25;1.42;;;24.50;70.10;;;;;;6219676;23;20763;-83
2023/08/12 10:22:30;;;;;;;2.92;1.60;;;24.40;72.00;;;;;;6215896;23;20021;-86
2023/08/12 10:24:59;;;;;;;2.20;1.40;;;24.40;72.10;;;;;;6215614;23;20016;-85
2023/08/12 10:27:27;;;;;;;3.78;2.72;;;24.50;71.10;;;;;;6217052;23;20513;-81
2023/08/12 10:30:02;;;;;;;2.92;1.38;;;24.60;71.90;;;;;;6190159;23;20027;-79
2023/08/12 10:32:31;;;;;;;4.00;1.17;;;24.60;70.70;;;;;;6216192;23;20640;-83
2023/08/12 10:34:59;;;;;;;2.15;1.20;;;24.60;69.10;;;;;;6190392;23;20025;-82
2023/08/12 10:37:30;;;;;;;5.85;1.50;;;24.60;68.90;;;;;;6215182;23;20030;-83
2023/08/12 10:39:58;;;;;;;3.55;1.23;;;24.60;69.20;;;;;;6190065;23;20074;-83
2023/08/12 10:42:44;;;;;;;2.80;1.40;;;24.50;68.90;;;;;;6215514;23;20107;-84
2023/08/12 10:45:14;;;;;;;2.33;1.23;;;24.50;69.50;;;;;;6218601;23;20022;-83
2023/08/12 10:47:46;;;;;;;2.08;1.30;;;24.60;67.90;;;;;;6219579;23;20023;-82
2023/08/12 10:50:22;;;;;;;1.95;1.60;;;24.50;70.20;;;;;;6213987;23;20021;-82
2023/08/12 10:52:53;;;;;;;3.30;1.23;;;24.60;71.10;;;;;;6164070;23;20467;-84
2023/08/12 10:55:23;;;;;;;1.73;1.13;;;24.70;72.10;;;;;;6188306;23;20819;-86
2023/08/12 10:57:55;;;;;;;2.30;1.20;;;24.90;71.30;;;;;;6189093;23;20028;-85
2023/08/12 11:00:28;;;;;;;4.88;1.58;;;24.90;68.50;;;;;;6164082;23;20029;-85
2023/08/12 11:02:58;;;;;;;3.55;1.40;;;24.80;69.80;;;;;;6212964;23;20059;-87
2023/08/12 11:05:37;;;;;;;2.20;1.35;;;25.00;70.80;;;;;;6189778;23;20661;-84
2023/08/12 11:08:05;;;;;;;1.92;1.30;;;25.00;69.80;;;;;;6187901;23;20527;-81
2023/08/12 11:10:35;;;;;;;2.17;1.27;;;24.90;66.40;;;;;;6188239;23;20075;-81
2023/08/12 11:13:03;;;;;;;2.17;1.23;;;24.90;67.30;;;;;;6188449;23;20467;-84
2023/08/12 11:15:41;;;;;;;2.65;1.48;;;24.90;67.30;;;;;;6189848;23;20025;-84
2023/08/12 11:18:09;;;;;;;2.90;1.40;;;24.80;66.90;;;;;;6188348;23;20029;-84
2023/08/12 11:20:38;;;;;;;2.40;1.50;;;24.50;67.80;;;;;;6188806;23;20515;-85
2023/08/12 11:23:06;;;;;;;2.00;1.30;;;24.50;67.30;;;;;;6165025;23;20017;-85
2023/08/12 11:25:35;;;;;;;2.25;1.35;;;24.60;67.60;;;;;;6165045;23;20017;-85
2023/08/12 11:28:04;;;;;;;2.00;1.23;;;24.80;68.50;;;;;;6192809;23;20020;-87
2023/08/12 11:30:32;;;;;;;2.65;1.95;;;25.00;68.60;;;;;;6159193;23;20448;-83
2023/08/12 11:33:01;;;;;;;3.28;1.52;;;25.10;66.80;;;;;;6232225;23;20016;-83
2023/08/12 11:35:29;;;;;;;2.53;1.75;;;25.00;66.60;;;;;;6218331;23;20366;-85
2023/08/12 11:37:58;;;;;;;2.90;1.40;;;25.00;66.60;;;;;;6220512;23;20749;-84
2023/08/12 11:40:29;;;;;;;1.75;1.23;;;25.10;68.80;;;;;;6220056;23;20713;-82
2023/08/12 11:42:56;;;;;;;2.10;1.52;;;25.00;67.10;;;;;;6219476;23;20020;-82
2023/08/12 11:45:25;;;;;;;2.47;1.40;;;25.10;66.30;;;;;;6218024;23;20027;-78
2023/08/12 11:47:53;;;;;;;2.60;1.30;;;25.10;66.70;;;;;;6169248;23;20035;-80
2023/08/12 11:50:27;;;;;;;2.40;1.08;;;25.20;66.50;;;;;;6222823;22;20024;-82
2023/08/12 11:52:56;;;;;;;3.95;1.35;;;25.10;65.60;;;;;;6223218;22;20024;-83
2023/08/12 11:55:24;;;;;;;2.53;1.40;;;25.20;64.90;;;;;;6246883;22;20400;-83
2023/08/12 11:57:52;;;;;;;2.05;1.33;;;25.20;68.10;;;;;;6244658;22;20023;-85
2023/08/12 12:00:20;;;;;;;2.88;1.10;;;25.20;66.60;;;;;;6244144;22;20023;-83
2023/08/12 12:02:55;;;;;;;3.58;1.02;;;25.20;64.70;;;;;;6221718;22;20015;-83
2023/08/12 12:05:30;;;;;;;2.20;1.25;;;25.20;66.30;;;;;;6219112;22;20026;-81
2023/08/12 12:07:58;;;;;;;1.63;1.20;;;25.20;66.60;;;;;;6220892;22;20027;-80
2023/08/12 12:10:35;;;;;;;1.90;1.27;;;25.30;67.30;;;;;;6245397;22;20054;-82
2023/08/12 12:13:04;;;;;;;2.35;1.40;;;25.30;65.40;;;;;;6247323;22;20024;-79
2023/08/12 12:15:37;;;;;;;2.75;1.20;;;25.40;64.50;;;;;;6223372;22;20047;-81
2023/08/12 12:18:13;;;;;;;1.98;1.63;;;25.30;63.80;;;;;;6223077;22;20447;-81
2023/08/12 12:20:57;;;;;;;1.92;1.20;;;25.40;64.50;;;;;;6247181;22;20019;-82
2023/08/12 12:23:31;;;;;;;1.90;1.35;;;25.40;64.60;;;;;;6248217;22;20054;-82
2023/08/12 12:26:02;;;;;;;1.77;1.23;;;25.40;66.90;;;;;;6222510;22;20042;-82
2023/08/12 12:28:29;;;;;;;2.20;1.23;;;25.40;67.40;;;;;;6221691;22;20023;-80
2023/08/12 12:30:56;;;;;;;2.17;1.40;;;25.40;67.40;;;;;;6247655;22;20020;-83
2023/08/12 12:33:24;;;;;;;1.92;1.23;;;25.50;68.50;;;;;;6221304;22;20106;-84
2023/08/12 12:35:51;;;;;;;2.17;1.33;;;25.50;67.90;;;;;;6246784;22;20336;-83
2023/08/12 12:38:26;;;;;;;2.35;1.52;;;25.60;65.60;;;;;;6247960;22;20030;-81
2023/08/12 12:40:54;;;;;;;3.30;1.50;;;25.50;67.20;;;;;;6274109;22;20023;-83
2023/08/12 12:43:21;;;;;;;2.00;1.33;;;25.40;66.60;;;;;;6246783;22;20019;-80
2023/08/12 12:45:48;;;;;;;2.85;1.30;;;25.40;66.10;;;;;;6221573;22;20050;-78
2023/08/12 12:48:15;;;;;;;2.30;1.23;;;25.60;64.20;;;;;;6223132;22;20082;-80
2023/08/12 12:50:42;;;;;;;4.40;1.75;;;25.60;65.50;;;;;;6247228;22;20070;-80
2023/08/12 12:53:09;;;;;;;1.60;1.25;;;25.60;64.90;;;;;;6247218;22;20047;-82
2023/08/12 12:55:37;;;;;;;4.57;1.23;;;25.60;64.80;;;;;;6221702;22;20019;-80
2023/08/12 12:58:04;;;;;;;1.80;1.10;;;25.50;65.20;;;;;;6245853;22;20841;-80
2023/08/12 13:00:31;;;;;;;3.10;1.45;;;25.50;65.10;;;;;;6221051;22;20030;-83
2023/08/12 13:02:58;;;;;;;1.70;1.13;;;25.70;65.40;;;;;;6246575;22;20047;-81
2023/08/12 13:05:25;;;;;;;3.25;1.50;;;25.70;65.00;;;;;;6221177;22;20051;-80
2023/08/12 13:07:52;;;;;;;3.03;1.38;;;25.80;65.60;;;;;;6246056;22;20085;-80
2023/08/12 13:10:20;;;;;;;3.67;1.48;;;25.80;65.00;;;;;;6246547;22;20045;-82
2023/08/12 13:12:47;;;;;;;1.70;1.00;;;25.80;64.90;;;;;;6245561;22;20028;-81
2023/08/12 13:15:14;;;;;;;2.40;1.40;;;25.70;65.10;;;;;;6221049;22;20110;-83
2023/08/12 13:17:41;;;;;;;2.28;1.20;;;25.70;65.80;;;;;;6246289;22;20034;-80
2023/08/12 13:20:09;;;;;;;1.85;1.70;;;25.70;65.10;;;;;;6245054;22;20027;-79
2023/08/12 13:22:36;;;;;;;2.00;1.30;;;25.80;64.80;;;;;;6221740;22;20019;-78
2023/08/12 13:25:04;;;;;;;2.90;1.35;;;25.70;66.00;;;;;;6219470;22;20070;-81
2023/08/12 13:27:31;;;;;;;2.45;1.02;;;25.70;64.90;;;;;;6248260;22;20518;-81
2023/08/12 13:29:58;;;;;;;2.42;2.05;;;25.60;64.40;;;;;;6247821;22;20023;-80
2023/08/12 13:32:26;;;;;;;2.78;1.70;;;25.60;65.40;;;;;;6244875;22;20011;-81
2023/08/12 13:34:53;;;;;;;2.15;1.42;;;25.60;66.60;;;;;;6218748;22;20398;-80
2023/08/12 13:37:20;;;;;;;2.40;1.58;;;25.70;66.40;;;;;;6246106;22;20431;-80
2023/08/12 13:39:47;;;;;;;2.55;1.90;;;25.80;65.10;;;;;;6246463;22;20026;-81
2023/08/12 13:42:14;;;;;;;3.95;1.13;;;25.90;65.10;;;;;;6246930;22;20023;-81
2023/08/12 13:44:42;;;;;;;2.92;1.30;;;25.80;64.80;;;;;;6246440;22;20016;-84
2023/08/12 13:47:09;;;;;;;1.88;1.30;;;25.90;67.30;;;;;;6245919;22;20026;-84
2023/08/12 13:49:36;;;;;;;2.90;1.73;;;25.90;67.90;;;;;;6246184;22;20028;-82
2023/08/12 13:52:03;;;;;;;2.75;1.40;;;25.90;65.60;;;;;;6247199;22;20106;-82
2023/08/12 13:54:31;;;;;;;4.57;1.25;;;25.80;65.20;;;;;;6246491;22;20027;-84
2023/08/12 13:56:59;;;;;;;3.67;1.88;;;25.90;66.80;;;;;;6222792;22;20032;-82
2023/08/12 13:59:26;;;;;;;2.00;1.67;;;25.90;66.00;;;;;;6246667;22;20024;-82
2023/08/12 14:01:53;;;;;;;2.05;1.40;;;25.90;66.90;;;;;;6221875;22;20486;-84
2023/08/12 14:04:23;;;;;;;3.63;1.40;;;25.90;67.10;;;;;;6213762;22;20619;-83
2023/08/12 14:06:51;;;;;;;3.05;1.65;;;25.90;67.40;;;;;;6246528;22;20015;-82
2023/08/12 14:09:19;;;;;;;3.55;1.40;;;25.80;66.80;;;;;;6219426;22;20085;-82
2023/08/12 14:11:47;;;;;;;5.32;2.10;;;25.90;67.10;;;;;;6246512;22;20416;-81
2023/08/12 14:14:14;;;;;;;1.90;1.30;;;26.00;68.50;;;;;;6237998;22;20508;-86
2023/08/12 14:16:41;;;;;;;3.35;1.45;;;26.10;67.10;;;;;;6241434;22;20019;-82
2023/08/12 14:19:08;;;;;;;5.97;2.30;;;25.90;67.00;;;;;;6216836;22;20059;-87
2023/08/12 14:21:35;;;;;;;1.90;1.63;;;25.60;69.30;;;;;;6243643;22;20027;-85
2023/08/12 14:24:03;;;;;;;3.55;1.65;;;25.60;70.10;;;;;;6217986;22;20057;-84
2023/08/12 14:26:30;;;;;;;6.10;3.88;;;25.60;71.20;;;;;;6241871;22;20024;-84
2023/08/12 14:28:57;;;;;;;3.67;1.98;;;25.70;70.90;;;;;;6218596;22;20055;-84
2023/08/12 14:31:24;;;;;;;6.18;2.05;;;25.90;69.60;;;;;;6242233;22;20350;-85
2023/08/12 14:33:52;;;;;;;3.40;1.92;;;25.90;69.70;;;;;;6217073;22;20019;-84
2023/08/12 14:36:19;;;;;;;1.77;1.55;;;25.80;68.50;;;;;;6242414;22;20111;-84
2023/08/12 14:38:46;;;;;;;2.90;1.50;;;25.70;67.90;;;;;;6243828;22;20023;-84
2023/08/12 14:41:13;;;;;;;2.15;1.70;;;25.80;67.40;;;;;;6249864;22;20023;-84
2023/08/12 14:43:40;;;;;;;2.20;1.35;;;25.70;68.90;;;;;;6243234;22;20016;-83
2023/08/12 14:46:07;;;;;;;2.20;1.92;;;25.60;69.60;;;;;;6217937;22;20023;-85
2023/08/12 14:48:35;;;;;;;2.20;1.45;;;25.60;68.10;;;;;;6220324;22;20047;-84
2023/08/12 14:51:02;;;;;;;2.28;1.27;;;25.60;70.00;;;;;;6241157;22;20019;-84
2023/08/12 14:53:29;;;;;;;2.42;1.70;;;25.70;68.10;;;;;;6243517;22;20490;-85
2023/08/12 14:55:56;;;;;;;2.25;1.65;;;25.60;69.70;;;;;;6217966;22;20633;-85
2023/08/12 14:58:23;;;;;;;3.40;1.63;;;25.50;70.30;;;;;;6243008;22;20047;-84
2023/08/12 15:00:50;;;;;;;2.20;1.80;;;25.50;69.70;;;;;;6242962;22;20050;-84
2023/08/12 15:03:18;;;;;;;1.50;1.40;;;25.40;70.20;;;;;;6269465;22;20011;-82
2023/08/12 15:05:45;;;;;;;2.17;1.73;;;25.40;70.30;;;;;;6242470;22;20428;-83
2023/08/12 15:08:12;;;;;;;1.90;1.55;;;25.40;70.30;;;;;;6216842;22;20354;-84
2023/08/12 15:10:40;;;;;;;3.67;1.40;;;25.40;70.80;;;;;;6216825;22;20028;-80
2023/08/12 15:13:07;;;;;;;3.20;1.90;;;25.40;69.20;;;;;;6241259;22;20030;-82
2023/08/12 15:15:34;;;;;;;2.50;1.60;;;25.50;68.20;;;;;;6218778;22;20088;-82
2023/08/12 15:18:01;;;;;;;2.58;1.42;;;25.50;68.70;;;;;;6241832;22;20098;-84
2023/08/12 15:20:28;;;;;;;2.17;1.30;;;25.40;69.50;;;;;;6245177;22;20138;-84
2023/08/12 15:22:58;;;;;;;1.50;1.15;;;25.40;69.30;;;;;;6223831;22;20023;-83
2023/08/12 15:25:25;;;;;;;1.63;1.50;;;25.40;69.60;;;;;;6240471;22;20403;-83
2023/08/12 15:27:52;;;;;;;3.22;1.40;;;25.40;70.20;;;;;;6216491;22;20114;-84
2023/08/12 15:30:19;;;;;;;2.13;1.45;;;25.40;69.40;;;;;;6215206;22;20054;-84
2023/08/12 15:32:49;;;;;;;1.80;1.30;;;25.30;70.80;;;;;;6242020;22;20047;-84
2023/08/12 15:35:16;;;;;;;1.73;1.48;;;25.30;70.50;;;;;;6270904;22;20012;-83
2023/08/12 15:37:43;;;;;;;3.35;1.73;;;25.30;69.60;;;;;;6216810;22;20073;-84
2023/08/12 15:40:11;;;;;;;3.15;1.45;;;25.30;70.00;;;;;;6215716;22;20027;-84
2023/08/12 15:42:38;;;;;;;1.50;1.20;;;25.20;71.50;;;;;;6242670;22;20051;-84
2023/08/12 15:45:06;;;;;;;2.45;1.60;;;25.20;72.00;;;;;;6242884;22;20054;-84
2023/08/12 15:47:34;;;;;;;3.15;1.42;;;25.20;72.30;;;;;;6242469;22;20557;-84
2023/08/12 15:50:02;;;;;;;1.95;1.45;;;25.20;72.10;;;;;;6242700;22;20015;-83
2023/08/12 15:52:32;;;;;;;1.90;1.48;;;25.20;71.60;;;;;;6243247;22;20031;-84
2023/08/12 15:55:00;;;;;;;3.40;1.90;;;25.20;72.20;;;;;;6242162;22;20297;-85
2023/08/12 15:57:28;;;;;;;2.70;1.80;;;25.20;72.00;;;;;;6245806;22;20020;-85
2023/08/12 15:59:55;;;;;;;2.65;1.83;;;25.20;72.80;;;;;;6244725;22;20020;-85
2023/08/12 16:02:22;;;;;;;1.58;1.20;;;25.20;72.10;;;;;;6247200;22;20016;-85
2023/08/12 16:04:49;;;;;;;3.22;2.13;;;25.20;71.60;;;;;;6245531;22;20016;-85
2023/08/12 16:07:16;;;;;;;3.35;1.70;;;25.20;72.20;;;;;;6246305;22;20509;-84
2023/08/12 16:09:45;;;;;;;2.33;1.90;;;25.10;71.70;;;;;;6245992;22;20393;-85
2023/08/12 16:12:12;;;;;;;4.20;1.52;;;25.10;72.10;;;;;;6243938;22;20019;-85
2023/08/12 16:14:40;;;;;;;7.53;2.25;;;25.10;72.30;;;;;;6245727;22;20058;-84
2023/08/12 16:17:09;;;;;;;2.65;1.70;;;25.00;71.80;;;;;;6247657;22;20019;-84
2023/08/12 16:19:36;;;;;;;3.25;1.30;;;25.10;72.60;;;;;;6245067;22;20098;-85
2023/08/12 16:22:03;;;;;;;1.38;1.27;;;25.00;72.50;;;;;;6242914;22;20054;-85
2023/08/12 16:24:31;;;;;;;1.42;1.33;;;25.00;72.20;;;;;;6242906;22;20475;-85
2023/08/12 16:26:59;;;;;;;2.50;1.20;;;25.00;71.80;;;;;;6246815;22;20024;-85
2023/08/12 16:29:27;;;;;;;2.67;1.58;;;25.00;72.80;;;;;;6248161;22;20042;-85
2023/08/12 16:31:54;;;;;;;2.53;1.30;;;25.00;73.10;;;;;;6244066;22;20036;-85
2023/08/12 16:34:21;;;;;;;2.58;1.45;;;24.90;73.50;;;;;;6217752;22;20304;-85
2023/08/12 16:36:49;;;;;;;3.08;1.60;;;24.90;73.90;;;;;;6244110;22;20027;-85
2023/08/12 16:39:36;;;;;;;1.50;1.40;;;24.90;73.80;;;;;;6224782;22;20027;-85
2023/08/12 16:42:03;;;;;;;3.17;1.58;;;24.90;73.80;;;;;;6218391;22;20027;-85
2023/08/12 16:44:30;;;;;;;2.72;1.35;;;24.90;73.20;;;;;;6219005;22;20491;-85
2023/08/12 16:46:57;;;;;;;1.95;1.45;;;24.80;73.60;;;;;;6244646;22;20015;-85
2023/08/12 16:49:25;;;;;;;1.92;1.40;;;24.80;73.90;;;;;;6243677;22;20102;-85
2023/08/12 16:51:52;;;;;;;2.50;1.50;;;24.70;72.40;;;;;;6217641;22;20447;-86
2023/08/12 16:54:19;;;;;;;3.20;1.60;;;24.80;72.90;;;;;;6245615;22;20020;-85
2023/08/12 16:56:46;;;;;;;3.67;1.83;;;24.70;74.50;;;;;;6219672;22;20424;-85
2023/08/12 16:59:13;;;;;;;3.15;2.00;;;24.70;74.20;;;;;;6218463;22;20027;-85
2023/08/12 17:01:41;;;;;;;3.45;1.80;;;24.60;74.20;;;;;;6243367;22;20069;-84
2023/08/12 17:04:11;;;;;;;3.10;1.88;;;24.60;73.80;;;;;;6241755;22;20027;-84
2023/08/12 17:06:41;;;;;;;2.15;1.40;;;24.50;73.90;;;;;;6217639;22;20016;-84
2023/08/12 17:09:08;;;;;;;2.92;1.60;;;24.50;74.60;;;;;;6217270;22;20429;-84
2023/08/12 17:11:43;;;;;;;1.55;1.45;;;24.50;74.80;;;;;;6245254;22;20336;-84
2023/08/12 17:14:10;;;;;;;1.70;1.55;;;24.50;75.20;;;;;;6241677;22;20457;-85
2023/08/12 17:16:38;;;;;;;2.33;1.85;;;24.40;75.50;;;;;;6241518;22;20030;-84
2023/08/12 17:19:06;;;;;;;2.83;1.80;;;24.40;75.80;;;;;;6217488;22;20020;-84
2023/08/12 17:21:33;;;;;;;2.47;1.60;;;24.30;76.40;;;;;;6242421;22;20438;-85
2023/08/12 17:24:00;;;;;;;3.25;2.08;;;24.30;75.80;;;;;;6242912;22;20020;-84
2023/08/12 17:26:27;;;;;;;2.88;1.65;;;24.30;76.10;;;;;;6215226;22;20427;-84
2023/08/12 17:28:54;;;;;;;2.83;2.00;;;24.20;76.00;;;;;;6217383;22;20393;-85
2023/08/12 17:31:21;;;;;;;2.47;1.90;;;24.20;75.90;;;;;;6216689;22;20045;-84
2023/08/12 17:33:49;;;;;;;3.80;1.70;;;24.10;76.60;;;;;;6215469;22;20089;-84
2023/08/12 17:36:16;;;;;;;3.33;1.70;;;24.10;77.60;;;;;;6242591;22;20439;-85
2023/08/12 17:38:43;;;;;;;3.78;1.80;;;23.90;78.80;;;;;;6216996;22;20020;-84
2023/08/12 17:41:10;;;;;;;8.82;1.95;;;23.90;79.50;;;;;;6217206;22;20098;-84
2023/08/12 17:43:38;;;;;;;5.47;2.50;;;23.80;80.40;;;;;;6242937;22;20470;-84
2023/08/12 17:46:05;;;;;;;5.63;2.50;;;23.80;81.20;;;;;;6219708;22;20024;-84
2023/08/12 17:48:33;;;;;;;7.95;2.40;;;23.70;82.00;;;;;;6268362;22;20025;-84
2023/08/12 17:51:00;;;;;;;7.70;2.70;;;23.60;82.50;;;;;;6241574;22;20475;-84
2023/08/12 17:53:27;;;;;;;10.00;5.00;;;23.60;82.90;;;;;;6241664;22;20050;-84
2023/08/12 17:55:54;;;;;;;7.57;3.70;;;23.50;83.40;;;;;;6243206;22;20085;-84
2023/08/12 17:58:21;;;;;;;6.80;3.05;;;23.50;83.40;;;;;;6243976;22;20020;-84
2023/08/12 18:00:48;;;;;;;5.32;2.30;;;23.40;83.70;;;;;;6216185;22;20451;-84
2023/08/12 18:03:16;;;;;;;3.92;1.80;;;23.40;84.40;;;;;;6239870;22;20050;-84
2023/08/12 18:05:44;;;;;;;4.40;1.83;;;23.30;84.50;;;;;;6244252;22;20405;-84
2023/08/12 18:08:12;;;;;;;5.97;1.92;;;23.30;85.00;;;;;;6220327;22;20054;-84
2023/08/12 18:10:39;;;;;;;7.60;3.03;;;23.20;85.70;;;;;;6241375;22;20391;-84
2023/08/12 18:13:06;;;;;;;10.05;3.13;;;23.20;87.20;;;;;;6217206;22;20499;-84
2023/08/12 18:15:34;;;;;;;6.28;3.28;;;23.10;89.70;;;;;;6241645;22;20046;-83
2023/08/12 18:18:02;;;;;;;8.45;2.88;;;23.10;89.80;;;;;;6241235;22;20027;-83
2023/08/12 18:20:29;;;;;;;4.53;2.58;;;23.10;90.50;;;;;;6215899;22;20030;-83
2023/08/12 18:22:58;;;;;;;4.57;2.60;;;23.00;89.60;;;;;;6245243;22;20115;-83
2023/08/12 18:25:25;;;;;;;6.88;3.67;;;23.00;89.70;;;;;;6218635;22;20020;-83
2023/08/12 18:27:52;;;;;;;4.78;2.97;;;23.00;89.30;;;;;;6239886;22;20062;-84
2023/08/12 18:30:19;;;;;;;5.53;2.78;;;23.00;88.50;;;;;;6245238;22;20023;-84
2023/08/12 18:32:46;;;;;;;3.25;1.95;;;23.00;88.70;;;;;;6216935;22;20023;-84
2023/08/12 18:35:14;;;;;;;4.68;2.17;;;23.00;88.10;;;;;;6241969;22;20133;-84
2023/08/12 18:37:41;;;;;;;3.42;2.40;;;22.90;89.70;;;;;;6242417;22;20028;-84
2023/08/12 18:40:09;;;;;;;6.45;2.40;;;22.80;90.70;;;;;;6241925;22;20034;-84
2023/08/12 18:42:37;;;;;;;3.90;1.92;;;22.80;90.90;;;;;;6215215;22;20024;-84
2023/08/12 18:45:05;;;;;;;4.78;2.72;;;22.70;90.60;;;;;;6239605;22;20525;-83
2023/08/12 18:47:32;;;;;;;7.50;2.35;;;22.70;89.80;;;;;;6215199;22;20027;-83
2023/08/12 18:50:00;;;;;;;4.03;2.25;;;22.70;90.70;;;;;;6240845;22;20020;-84
2023/08/12 18:52:28;;;;;;;5.00;2.15;;;22.60;92.00;;;;;;6216786;22;20020;-84
2023/08/12 18:54:55;;;;;;;3.05;2.20;;;22.60;92.50;;;;;;6268833;22;20020;-84
2023/08/12 18:57:24;;;;;;;5.35;2.40;;;22.50;92.60;;;;;;6239890;22;20023;-84
2023/08/12 18:59:51;;;;;;;3.60;2.83;;;22.50;92.80;;;;;;6215641;22;20073;-83
2023/08/12 19:02:19;;;;;;;3.90;2.55;;;22.50;93.40;;;;;;6268306;22;20019;-85
2023/08/12 19:04:48;;;;;;;5.68;2.35;;;22.40;93.70;;;;;;6240429;22;20073;-85
2023/08/12 19:07:15;;;;;;;3.95;2.50;;;22.40;93.30;;;;;;6218162;22;20027;-84
2023/08/12 23:09:25;;;;;;;5.65;3.20;;;19.50;99.90;;;;;;6222481;22;20032;31
2023/08/12 23:11:52;;;;;;;5.22;3.17;;;19.50;99.90;;;;;;6158294;23;20021;-80
2023/08/12 23:14:19;;;;;;;5.60;3.22;;;19.40;99.90;;;;;;6153371;23;20001;-80
2023/08/12 23:36:43;;;;;;;6.00;3.35;;;19.30;99.90;;;;;;6260253;22;20016;-80
2023/08/12 23:39:11;;;;;;;6.50;4.13;;;19.20;99.90;;;;;;6248641;23;20000;-80
2023/08/12 23:41:38;;;;;;;5.18;3.30;;;19.20;99.90;;;;;;6248215;23;20047;-81
2023/08/12 23:44:05;;;;;;;5.70;3.47;;;19.10;99.90;;;;;;6248013;22;20027;-81
